createdAt,value
2019-02-21T00:01:28.191Z,96057.94
2019-02-21T00:03:58.135Z,96064.27
2019-02-21T00:06:28.066Z,96065.34
2019-02-21T00:08:57.981Z,96067.42
2019-02-21T00:11:27.980Z,96067.14
2019-02-21T00:13:58.005Z,96073.09
2019-02-21T00:16:27.947Z,96070.48
2019-02-21T00:18:57.799Z,96075.77
2019-02-21T00:21:27.755Z,96070.21
2019-02-21T00:23:57.826Z,96072.06
2019-02-21T00:26:27.862Z,96071.28
2019-02-21T00:28:57.710Z,96074.16
2019-02-21T00:31:27.586Z,96071.00
2019-02-21T00:33:57.493Z,96073.27
2019-02-21T00:36:27.382Z,96072.80
2019-02-21T00:38:57.303Z,96078.69
2019-02-21T00:41:27.178Z,96083.45
2019-02-21T00:43:57.014Z,96081.28
2019-02-21T00:46:26.979Z,96083.50
2019-02-21T00:48:56.846Z,96081.32
2019-02-21T00:51:26.817Z,96084.39
2019-02-21T00:53:56.785Z,96082.23
2019-02-21T00:56:26.715Z,96084.42
2019-02-21T00:58:56.626Z,96085.67
2019-02-21T01:01:26.456Z,96092.86
2019-02-21T01:03:56.452Z,96089.30
2019-02-21T01:06:26.367Z,96095.20
2019-02-21T01:08:56.395Z,96090.19
2019-02-21T01:11:26.342Z,96096.22
2019-02-21T01:13:56.296Z,96092.88
2019-02-21T01:16:26.150Z,96089.28
2019-02-21T01:18:56.224Z,96088.88
2019-02-21T01:21:26.130Z,96091.27
2019-02-21T01:23:56.134Z,96089.28
2019-02-21T01:26:25.986Z,96092.83
2019-02-21T01:28:55.866Z,96091.55
2019-02-21T01:31:25.751Z,96094.52
2019-02-21T01:33:55.714Z,96099.72
2019-02-21T01:36:25.585Z,96095.23
2019-02-21T01:38:55.464Z,96105.28
2019-02-21T01:41:25.398Z,96093.50
2019-02-21T01:43:55.353Z,96097.03
2019-02-21T01:46:26.267Z,96097.50
2019-02-21T01:48:56.111Z,96099.20
2019-02-21T01:51:25.994Z,96098.38
2019-02-21T01:53:56.012Z,96094.05
2019-02-21T01:56:25.977Z,96101.73
2019-02-21T01:58:55.885Z,96099.66
2019-02-21T02:01:25.862Z,96105.22
2019-02-21T02:03:55.968Z,96098.33
2019-02-21T02:06:27.012Z,96100.99
2019-02-21T02:08:56.875Z,96104.48
2019-02-21T02:11:26.747Z,96095.77
2019-02-21T02:13:56.623Z,96097.73
2019-02-21T02:16:26.575Z,96093.99
2019-02-21T02:18:56.556Z,96092.61
2019-02-21T02:21:26.554Z,96094.82
2019-02-21T02:23:56.580Z,96099.77
2019-02-21T02:26:26.548Z,96096.29
2019-02-21T02:28:56.523Z,96092.25
2019-02-21T02:31:26.394Z,96105.59
2019-02-21T02:33:56.420Z,96100.84
2019-02-21T02:36:26.455Z,96106.23
2019-02-21T02:38:56.311Z,96100.69
2019-02-21T02:41:26.203Z,96099.42
2019-02-21T02:43:56.043Z,96107.52
2019-02-21T02:46:26.041Z,96106.65
2019-02-21T02:48:56.028Z,96113.47
2019-02-21T02:51:25.991Z,96110.39
2019-02-21T02:53:55.838Z,96120.16
2019-02-21T02:56:25.832Z,96117.42
2019-02-21T02:58:55.908Z,96117.62
2019-02-21T03:01:34.358Z,96114.74
2019-02-21T03:03:57.555Z,96114.87
2019-02-21T03:06:27.618Z,96113.07
2019-02-21T03:08:57.604Z,96112.33
2019-02-21T03:11:27.570Z,96113.00
2019-02-21T03:13:57.543Z,96109.55
2019-02-21T03:16:27.744Z,96110.77
2019-02-21T03:18:57.647Z,96113.30
2019-02-21T03:21:27.532Z,96117.11
2019-02-21T03:23:57.402Z,96119.72
2019-02-21T03:26:27.326Z,96122.92
2019-02-21T03:28:57.340Z,96115.17
2019-02-21T03:31:27.157Z,96116.31
2019-02-21T03:33:57.142Z,96116.38
2019-02-21T03:36:27.102Z,96111.77
2019-02-21T03:38:57.054Z,96111.42
2019-02-21T03:41:27.031Z,96123.06
2019-02-21T03:43:56.935Z,96116.31
2019-02-21T03:46:26.798Z,96122.53
2019-02-21T03:48:56.747Z,96113.50
2019-02-21T03:51:26.615Z,96120.99
2019-02-21T03:53:56.458Z,96126.88
2019-02-21T03:56:26.521Z,96127.08
2019-02-21T03:58:56.489Z,96125.69
2019-02-21T04:01:26.800Z,96130.36
2019-02-21T04:03:56.796Z,96127.08
2019-02-21T04:06:26.825Z,96133.90
2019-02-21T04:08:56.855Z,96130.22
2019-02-21T04:11:26.882Z,96127.34
2019-02-21T04:13:56.814Z,96123.53
2019-02-21T04:16:26.706Z,96122.73
2019-02-21T04:18:56.671Z,96126.20
2019-02-21T04:21:26.634Z,96134.38
2019-02-21T04:23:56.541Z,96125.48
2019-02-21T04:26:26.439Z,96142.44
2019-02-21T04:28:56.485Z,96138.30
2019-02-21T04:31:26.404Z,96137.02
2019-02-21T04:33:57.393Z,96134.02
2019-02-21T04:36:27.365Z,96131.35
2019-02-21T04:38:57.221Z,96129.95
2019-02-21T04:41:27.164Z,96128.73
2019-02-21T04:43:57.047Z,96123.32
2019-02-21T04:46:26.955Z,96130.34
2019-02-21T04:48:56.800Z,96127.15
2019-02-21T04:51:26.826Z,96125.86
2019-02-21T04:53:56.776Z,96123.86
2019-02-21T04:56:26.765Z,96130.21
2019-02-21T04:58:56.744Z,96134.53
2019-02-21T05:01:26.594Z,96136.27
2019-02-21T05:03:56.641Z,96135.60
2019-02-21T05:06:26.530Z,96137.95
2019-02-21T05:08:56.486Z,96136.56
2019-02-21T05:11:26.319Z,96132.83
2019-02-21T05:13:56.295Z,96137.36
2019-02-21T05:16:26.209Z,96139.09
2019-02-21T05:18:56.220Z,96136.87
2019-02-21T05:21:26.182Z,96136.66
2019-02-21T05:23:56.105Z,96137.75
2019-02-21T05:26:33.472Z,96142.03
2019-02-21T05:29:04.485Z,96137.85
2019-02-21T05:31:45.069Z,96140.30
2019-02-21T05:34:33.983Z,96141.78
2019-02-21T05:37:23.155Z,96143.44
2019-02-21T05:40:18.309Z,96135.78
2019-02-21T05:43:07.418Z,96136.58
2019-02-21T05:45:43.021Z,96140.47
2019-02-21T05:48:31.953Z,96148.12
2019-02-21T05:51:16.639Z,96141.16
2019-02-21T05:53:57.437Z,96147.24
2019-02-21T05:56:42.962Z,96148.77
2019-02-21T05:59:27.331Z,96146.30
2019-02-21T06:02:19.160Z,96152.23
2019-02-21T06:05:04.174Z,96151.98
2019-02-21T06:07:59.032Z,96154.61
2019-02-21T06:10:56.882Z,96159.94
2019-02-21T06:13:57.868Z,96159.47
2019-02-21T06:16:39.581Z,96165.43
2019-02-21T06:19:17.730Z,96158.96
2019-02-21T06:21:53.456Z,96164.66
2019-02-21T06:24:31.581Z,96166.78
2019-02-21T06:27:06.158Z,96168.39
2019-02-21T06:29:44.514Z,96165.47
2019-02-21T06:32:14.775Z,96171.64
2019-02-21T06:34:44.778Z,96175.45
2019-02-21T06:37:15.831Z,96176.64
2019-02-21T06:39:45.732Z,96176.98
2019-02-21T06:42:15.616Z,96185.48
2019-02-21T06:44:45.623Z,96183.14
2019-02-21T06:47:15.494Z,96187.97
2019-02-21T06:49:45.365Z,96185.38
2019-02-21T06:52:15.753Z,96189.39
2019-02-21T06:54:45.880Z,96197.76
2019-02-21T06:57:15.814Z,96201.30
2019-02-21T06:59:45.699Z,96195.62
2019-02-21T07:02:15.679Z,96204.45
2019-02-21T07:04:45.694Z,96206.99
2019-02-21T07:07:15.552Z,96209.00
2019-02-21T07:09:45.464Z,96202.64
2019-02-21T07:12:15.425Z,96212.34
2019-02-21T07:14:45.529Z,96219.51
2019-02-21T07:17:15.499Z,96219.95
2019-02-21T07:19:45.456Z,96225.64
2019-02-21T07:22:18.106Z,96225.91
2019-02-21T07:24:49.193Z,96227.41
2019-02-21T07:27:19.161Z,96227.61
2019-02-21T07:29:49.015Z,96233.27
2019-02-21T07:32:18.900Z,96233.77
2019-02-21T07:34:48.894Z,96236.02
2019-02-21T07:37:19.241Z,96235.13
2019-02-21T07:39:50.904Z,96235.72
2019-02-21T07:42:20.910Z,96234.53
2019-02-21T07:44:50.944Z,96235.23
2019-02-21T07:47:20.923Z,96227.09
2019-02-21T07:49:50.783Z,96228.64
2019-02-21T07:52:20.696Z,96235.69
2019-02-21T07:55:01.024Z,96229.22
2019-02-21T07:57:22.995Z,96240.97
2019-02-21T07:59:52.851Z,96238.86
2019-02-21T08:02:22.892Z,96241.59
2019-02-21T08:04:52.823Z,96239.91
2019-02-21T08:07:22.960Z,96238.35
2019-02-21T08:09:52.995Z,96234.43
2019-02-21T08:12:23.345Z,96234.77
2019-02-21T08:14:56.311Z,96225.45
2019-02-21T08:17:27.992Z,96229.00
2019-02-21T08:20:07.835Z,96224.83
2019-02-21T08:22:29.303Z,96230.13
2019-02-21T08:24:59.201Z,96235.87
2019-02-21T08:27:29.118Z,96245.42
2019-02-21T08:29:59.137Z,96242.22
2019-02-21T08:32:37.254Z,96244.37
2019-02-21T08:35:07.285Z,96244.98
2019-02-21T08:37:37.222Z,96239.70
2019-02-21T08:40:07.207Z,96234.92
2019-02-21T08:42:37.096Z,96236.20
2019-02-21T08:45:07.238Z,96233.00
2019-02-21T08:47:37.153Z,96236.34
2019-02-21T08:50:07.218Z,96238.25
2019-02-21T08:52:37.122Z,96232.29
2019-02-21T08:55:07.104Z,96239.02
2019-02-21T08:57:37.061Z,96241.90
2019-02-21T09:00:10.797Z,96246.55
2019-02-21T09:02:39.801Z,96246.28
2019-02-21T09:05:10.574Z,96235.37
2019-02-21T09:07:41.712Z,96235.17
2019-02-21T09:10:12.331Z,96249.30
2019-02-21T09:12:47.130Z,96243.70
2019-02-21T09:15:15.767Z,96256.03
2019-02-21T09:17:45.697Z,96250.13
2019-02-21T09:20:15.734Z,96255.03
2019-02-21T09:22:45.697Z,96259.05
2019-02-21T09:25:15.836Z,96253.48
2019-02-21T09:27:45.706Z,96262.86
2019-02-21T09:30:17.252Z,96268.31
2019-02-21T09:32:47.429Z,96260.93
2019-02-21T09:35:17.393Z,96272.25
2019-02-21T09:37:47.340Z,96265.54
2019-02-21T09:40:17.405Z,96268.30
2019-02-21T09:42:47.435Z,96269.04
2019-02-21T09:45:17.971Z,96268.50
2019-02-21T09:47:47.941Z,96273.75
2019-02-21T09:50:17.878Z,96268.88
2019-02-21T09:52:47.856Z,96266.27
2019-02-21T09:55:18.164Z,96268.59
2019-02-21T09:57:48.121Z,96262.22
2019-02-21T10:00:19.639Z,96267.66
2019-02-21T10:02:49.627Z,96264.42
2019-02-21T10:05:19.549Z,96258.95
2019-02-21T10:07:49.490Z,96264.91
2019-02-21T10:10:20.584Z,96266.03
2019-02-21T10:12:50.454Z,96256.98
2019-02-21T10:15:20.449Z,96268.98
2019-02-21T10:17:50.970Z,96272.66
2019-02-21T10:20:21.471Z,96267.88
2019-02-21T10:22:51.503Z,96272.64
2019-02-21T10:25:23.705Z,96274.53
2019-02-21T10:27:53.722Z,96272.27
2019-02-21T10:30:23.887Z,96259.82
2019-02-21T10:32:53.859Z,96257.13
2019-02-21T10:35:23.854Z,96254.85
2019-02-21T10:37:53.878Z,96260.39
2019-02-21T10:40:23.871Z,96247.67
2019-02-21T10:42:53.907Z,96257.00
2019-02-21T10:45:24.006Z,96255.41
2019-02-21T10:47:54.033Z,96251.85
2019-02-21T10:50:24.146Z,96258.66
2019-02-21T10:52:54.182Z,96247.68
2019-02-21T10:55:24.094Z,96245.39
2019-02-21T10:57:54.058Z,96255.72
2019-02-21T11:00:26.415Z,96238.27
2019-02-21T11:02:57.753Z,96236.09
2019-02-21T11:05:27.746Z,96236.00
2019-02-21T11:07:57.707Z,96219.45
2019-02-21T11:10:28.488Z,96233.03
2019-02-21T11:12:59.480Z,96216.66
2019-02-21T11:15:29.498Z,96219.47
2019-02-21T11:17:59.387Z,96217.68
2019-02-21T11:20:29.326Z,96221.50
2019-02-21T11:22:59.163Z,96215.70
2019-02-21T11:25:29.141Z,96213.61
2019-02-21T11:27:58.955Z,96220.08
2019-02-21T11:30:28.906Z,96211.33
2019-02-21T11:32:58.747Z,96215.88
2019-02-21T11:35:28.636Z,96213.00
2019-02-21T11:37:58.486Z,96210.66
2019-02-21T11:40:28.483Z,96212.06
2019-02-21T11:42:58.373Z,96219.34
2019-02-21T11:45:28.321Z,96213.80
2019-02-21T11:47:58.274Z,96214.70
2019-02-21T11:50:28.262Z,96219.18
2019-02-21T11:52:58.124Z,96210.80
2019-02-21T11:55:28.055Z,96215.72
2019-02-21T11:57:58.117Z,96216.39
2019-02-21T12:00:28.617Z,96208.48
2019-02-21T12:02:58.660Z,96201.98
2019-02-21T12:05:31.323Z,96204.84
2019-02-21T12:08:00.233Z,96195.15
2019-02-21T12:10:30.182Z,96197.13
2019-02-21T12:13:00.240Z,96194.86
2019-02-21T12:15:31.249Z,96188.73
2019-02-21T12:18:01.205Z,96195.85
2019-02-21T12:20:32.099Z,96198.52
2019-02-21T12:23:01.999Z,96194.12
2019-02-21T12:25:32.099Z,96191.14
2019-02-21T12:28:02.001Z,96191.70
2019-02-21T12:30:33.438Z,96191.00
2019-02-21T12:33:03.727Z,96184.07
2019-02-21T12:35:33.713Z,96178.64
2019-02-21T12:38:03.677Z,96184.00
2019-02-21T12:40:33.568Z,96182.91
2019-02-21T12:43:03.526Z,96173.12
2019-02-21T12:45:33.483Z,96177.84
2019-02-21T12:48:03.441Z,96180.44
2019-02-21T12:50:43.691Z,96181.23
2019-02-21T12:53:05.114Z,96182.54
2019-02-21T12:55:34.968Z,96186.41
2019-02-21T12:58:04.966Z,96179.91
2019-02-21T13:00:36.670Z,96181.98
2019-02-21T13:03:06.657Z,96186.91
2019-02-21T13:05:40.990Z,96176.50
2019-02-21T13:08:08.173Z,96171.71
2019-02-21T13:10:38.017Z,96169.83
2019-02-21T13:13:07.986Z,96174.56
2019-02-21T13:15:37.994Z,96167.32
2019-02-21T13:18:15.477Z,96173.13
2019-02-21T13:20:39.771Z,96171.41
2019-02-21T13:23:09.681Z,96162.77
2019-02-21T13:25:41.254Z,96169.08
2019-02-21T13:28:11.229Z,96171.30
2019-02-21T13:30:41.180Z,96166.80
2019-02-21T13:33:11.043Z,96167.42
2019-02-21T13:35:51.858Z,96169.95
2019-02-21T13:38:12.639Z,96163.73
2019-02-21T13:40:42.547Z,96162.97
2019-02-21T13:43:12.530Z,96161.03
2019-02-21T13:45:42.512Z,96162.27
2019-02-21T13:48:12.437Z,96161.14
2019-02-21T13:50:42.305Z,96159.56
2019-02-21T13:53:12.339Z,96151.48
2019-02-21T13:55:42.311Z,96145.92
2019-02-21T13:58:12.309Z,96155.65
2019-02-21T14:00:42.286Z,96147.38
2019-02-21T14:03:12.399Z,96138.70
2019-02-21T14:05:42.342Z,96138.45
2019-02-21T14:08:12.259Z,96144.78
2019-02-21T14:10:42.240Z,96139.03
2019-02-21T14:13:12.166Z,96138.91
2019-02-21T14:15:42.063Z,96127.73
2019-02-21T14:18:12.163Z,96139.94
2019-02-21T14:20:45.505Z,96131.23
2019-02-21T14:23:13.650Z,96123.47
2019-02-21T14:25:43.473Z,96123.05
2019-02-21T14:28:13.429Z,96126.17
2019-02-21T14:30:43.347Z,96132.39
2019-02-21T14:33:13.207Z,96121.17
2019-02-21T14:35:43.128Z,96122.55
2019-02-21T14:38:13.081Z,96117.23
2019-02-21T14:40:42.907Z,96117.38
2019-02-21T14:43:16.934Z,96111.34
2019-02-21T14:45:45.429Z,96119.58
2019-02-21T14:48:15.328Z,96123.45
2019-02-21T14:50:45.270Z,96110.25
2019-02-21T14:53:15.285Z,96112.20
2019-02-21T14:55:45.203Z,96100.56
2019-02-21T14:58:15.201Z,96093.81
2019-02-21T15:00:45.055Z,96090.11
2019-02-21T15:03:21.948Z,96083.83
2019-02-21T15:05:46.716Z,96092.70
2019-02-21T15:08:22.021Z,96092.91
2019-02-21T15:10:52.853Z,96092.80
2019-02-21T15:13:25.429Z,96087.83
2019-02-21T15:15:54.454Z,96081.09
2019-02-21T15:18:25.351Z,96085.94
2019-02-21T15:20:55.357Z,96092.09
2019-02-21T15:23:25.278Z,96093.36
2019-02-21T15:25:55.217Z,96093.55
2019-02-21T15:28:25.090Z,96095.88
2019-02-21T15:30:55.010Z,96093.45
2019-02-21T15:33:24.889Z,96097.81
2019-02-21T15:35:54.857Z,96099.10
2019-02-21T15:38:24.846Z,96094.44
2019-02-21T15:40:54.695Z,96098.86
2019-02-21T15:43:24.717Z,96100.97
2019-02-21T15:45:54.626Z,96094.77
2019-02-21T15:48:24.603Z,96090.73
2019-02-21T15:50:54.547Z,96087.88
2019-02-21T15:53:24.515Z,96092.05
2019-02-21T15:55:54.409Z,96095.32
2019-02-21T15:58:24.402Z,96099.25
2019-02-21T16:00:54.324Z,96098.95
2019-02-21T16:03:24.357Z,96101.64
2019-02-21T16:05:54.482Z,96096.73
2019-02-21T16:08:24.357Z,96097.46
2019-02-21T16:10:54.367Z,96095.88
2019-02-21T16:13:24.758Z,96107.75
2019-02-21T16:15:54.861Z,96116.89
2019-02-21T16:18:24.812Z,96116.09
2019-02-21T16:20:54.762Z,96113.57
2019-02-21T16:23:24.616Z,96120.00
2019-02-21T16:25:54.680Z,96122.58
2019-02-21T16:28:24.599Z,96125.55
2019-02-21T16:30:55.533Z,96124.48
2019-02-21T16:33:25.390Z,96125.59
2019-02-21T16:35:55.336Z,96123.92
2019-02-21T16:38:25.280Z,96123.16
2019-02-21T16:40:55.208Z,96117.89
2019-02-21T16:43:26.386Z,96124.09
2019-02-21T16:46:07.106Z,96124.72
2019-02-21T16:48:29.033Z,96128.75
2019-02-21T16:50:58.991Z,96131.81
2019-02-21T16:53:29.825Z,96129.90
2019-02-21T16:55:59.852Z,96131.50
2019-02-21T16:58:29.750Z,96132.03
2019-02-21T17:00:59.784Z,96134.91
2019-02-21T17:03:29.703Z,96138.28
2019-02-21T17:05:59.671Z,96132.66
2019-02-21T17:08:29.577Z,96149.80
2019-02-21T17:10:59.563Z,96147.94
2019-02-21T17:13:29.406Z,96155.07
2019-02-21T17:16:02.565Z,96157.97
2019-02-21T17:18:32.426Z,96159.73
2019-02-21T17:21:02.338Z,96166.30
2019-02-21T17:23:32.377Z,96161.07
2019-02-21T17:26:02.254Z,96165.91
2019-02-21T17:28:32.204Z,96170.43
2019-02-21T17:31:02.287Z,96170.97
2019-02-21T17:33:32.216Z,96183.64
2019-02-21T17:36:02.110Z,96191.87
2019-02-21T17:38:32.020Z,96189.84
2019-02-21T17:41:02.156Z,96188.36
2019-02-21T17:43:32.020Z,96185.92
2019-02-21T17:46:01.930Z,96183.67
2019-02-21T17:48:31.957Z,96189.90
2019-02-21T17:51:01.895Z,96182.73
2019-02-21T17:53:31.920Z,96180.48
2019-02-21T17:56:01.839Z,96178.38
2019-02-21T17:58:32.722Z,96191.42
2019-02-21T18:01:02.628Z,96192.63
2019-02-21T18:03:33.868Z,96192.48
2019-02-21T18:06:04.016Z,96191.72
2019-02-21T18:08:34.019Z,96192.55
2019-02-21T18:11:04.005Z,96192.55
2019-02-21T18:13:33.960Z,96189.98
2019-02-21T18:16:03.880Z,96188.25
2019-02-21T18:18:33.836Z,96186.19
2019-02-21T18:21:03.858Z,96191.90
2019-02-21T18:23:33.765Z,96200.14
2019-02-21T18:26:14.611Z,96201.26
2019-02-21T18:28:44.660Z,96207.19
2019-02-21T18:31:21.707Z,96203.99
2019-02-21T18:33:51.787Z,96206.70
2019-02-21T18:36:21.769Z,96198.86
2019-02-21T18:38:51.732Z,96204.89
2019-02-21T18:41:21.708Z,96203.21
2019-02-21T18:43:51.761Z,96210.88
2019-02-21T18:46:21.748Z,96206.66
2019-02-21T18:48:51.780Z,96211.63
2019-02-21T18:51:21.736Z,96214.44
2019-02-21T18:53:51.735Z,96216.98
2019-02-21T18:56:21.751Z,96211.07
2019-02-21T18:58:51.809Z,96214.20
2019-02-21T19:01:21.708Z,96216.16
2019-02-21T19:03:51.692Z,96214.04
2019-02-21T19:06:21.678Z,96218.22
2019-02-21T19:08:51.707Z,96217.42
2019-02-21T19:11:21.601Z,96219.87
2019-02-21T19:13:51.627Z,96220.70
2019-02-21T19:16:21.576Z,96223.10
2019-02-21T19:18:51.536Z,96230.30
2019-02-21T19:21:21.453Z,96226.13
2019-02-21T19:23:51.513Z,96228.95
2019-02-21T19:26:21.409Z,96234.15
2019-02-21T19:28:51.441Z,96238.31
2019-02-21T19:31:21.422Z,96239.16
2019-02-21T19:33:51.558Z,96239.47
2019-02-21T19:36:21.538Z,96249.19
2019-02-21T19:38:53.651Z,96245.33
2019-02-21T19:41:23.584Z,96245.95
2019-02-21T19:43:53.599Z,96247.91
2019-02-21T19:46:23.471Z,96245.48
2019-02-21T19:48:53.534Z,96246.70
2019-02-21T19:51:23.530Z,96253.48
2019-02-21T19:53:53.415Z,96254.66
2019-02-21T19:56:23.417Z,96262.40
2019-02-21T19:58:54.606Z,96264.96
2019-02-21T20:01:24.729Z,96264.75
2019-02-21T20:03:54.910Z,96268.70
2019-02-21T20:06:24.840Z,96269.67
2019-02-21T20:08:54.879Z,96271.62
2019-02-21T20:11:24.907Z,96271.63
2019-02-21T20:13:54.841Z,96276.64
2019-02-21T20:16:24.894Z,96279.48
2019-02-21T20:18:54.808Z,96277.20
2019-02-21T20:21:24.700Z,96271.25
2019-02-21T20:23:54.582Z,96281.87
2019-02-21T20:26:24.675Z,96280.89
2019-02-21T20:28:55.263Z,96278.14
2019-02-21T20:31:25.404Z,96277.19
2019-02-21T20:33:55.473Z,96276.21
2019-02-21T20:36:25.582Z,96276.00
2019-02-21T20:38:55.410Z,96278.61
2019-02-21T20:41:25.728Z,96276.57
2019-02-21T20:43:55.766Z,96275.59
2019-02-21T20:46:25.741Z,96278.61
2019-02-21T20:48:55.733Z,96282.16
2019-02-21T20:51:25.701Z,96286.91
2019-02-21T20:53:55.830Z,96283.78
2019-02-21T20:56:28.393Z,96283.80
2019-02-21T20:59:01.488Z,96289.91
2019-02-21T21:01:31.511Z,96284.50
2019-02-21T21:04:01.666Z,96278.33
2019-02-21T21:06:31.856Z,96285.30
2019-02-21T21:09:01.738Z,96289.78
2019-02-21T21:11:33.477Z,96295.71
2019-02-21T21:14:03.466Z,96293.62
2019-02-21T21:16:34.490Z,96293.66
2019-02-21T21:19:04.409Z,96291.25
2019-02-21T21:21:34.270Z,96297.02
2019-02-21T21:24:04.377Z,96296.36
2019-02-21T21:26:34.241Z,96291.42
2019-02-21T21:29:04.207Z,96288.85
2019-02-21T21:31:34.101Z,96294.95
2019-02-21T21:34:03.999Z,96298.14
2019-02-21T21:36:33.992Z,96298.00
2019-02-21T21:39:04.413Z,96299.73
2019-02-21T21:41:36.051Z,96302.11
2019-02-21T21:44:06.028Z,96306.57
2019-02-21T21:46:36.035Z,96309.30
2019-02-21T21:49:05.944Z,96305.66
2019-02-21T21:51:35.985Z,96309.33
2019-02-21T21:54:05.937Z,96304.84
2019-02-21T21:56:35.944Z,96304.55
2019-02-21T21:59:06.934Z,96306.47
2019-02-21T22:01:36.953Z,96306.63
2019-02-21T22:04:06.933Z,96307.44
2019-02-21T22:06:36.815Z,96306.30
2019-02-21T22:09:07.104Z,96300.38
2019-02-21T22:11:37.604Z,96298.62
2019-02-21T22:14:07.594Z,96301.68
2019-02-21T22:16:37.625Z,96294.95
2019-02-21T22:19:07.903Z,96293.66
2019-02-21T22:21:38.774Z,96299.73
2019-02-21T22:24:08.788Z,96296.86
2019-02-21T22:26:38.735Z,96292.34
2019-02-21T22:29:09.073Z,96292.05
2019-02-21T22:31:38.991Z,96288.86
2019-02-21T22:34:09.190Z,96297.95
2019-02-21T22:36:39.228Z,96296.67
2019-02-21T22:39:16.269Z,96299.72
2019-02-21T22:41:41.461Z,96301.66
2019-02-21T22:44:12.823Z,96301.66
2019-02-21T22:46:42.776Z,96300.22
2019-02-21T22:49:12.825Z,96304.52
2019-02-21T22:51:42.731Z,96301.75
2019-02-21T22:54:12.730Z,96298.81
2019-02-21T22:56:42.618Z,96299.80
2019-02-21T22:59:12.703Z,96299.30
2019-02-21T23:01:45.270Z,96300.12
2019-02-21T23:04:49.752Z,96297.56
2019-02-21T23:07:31.138Z,96295.15
2019-02-21T23:10:01.398Z,96300.14
2019-02-21T23:12:33.028Z,96304.84
2019-02-21T23:15:03.498Z,96307.41
2019-02-21T23:17:33.933Z,96304.40
2019-02-21T23:20:04.187Z,96305.63
2019-02-21T23:22:34.231Z,96306.41
2019-02-21T23:25:04.777Z,96308.99
2019-02-21T23:27:34.678Z,96312.20
2019-02-21T23:30:08.899Z,96306.75
2019-02-21T23:32:40.622Z,96301.31
2019-02-21T23:35:15.865Z,96303.85
2019-02-21T23:37:45.833Z,96302.39
2019-02-21T23:40:15.751Z,96312.17
2019-02-21T23:42:45.742Z,96310.26
2019-02-21T23:45:15.657Z,96323.36
2019-02-21T23:47:49.668Z,96321.07
2019-02-21T23:50:17.153Z,96321.55
2019-02-21T23:52:47.076Z,96328.08
2019-02-21T23:55:16.907Z,96329.24
2019-02-21T23:57:46.814Z,96318.00
